PROFILE

 METAR AND TAF INFORMATION
ADDS - METARS form results

(1401 UTC 25 September 2022)
http://aviationweather.gov/metar/data/
 
LFLS 251330Z AUTO 34010KT 9999 FEW029/// BKN049/// BKN082/// ///CB 17/12 Q1014 BECMG BKN030
TAF AMD LFLS 250928Z 2509/2609 VRB02KT 9999 BKN030 BECMG 2512/2514 36005KT TEMPO 2509/2514 RA BKN007 BECMG 2521/2524 BKN014 PROB40 TEMPO 2600/2607 3000 BR OVC008 

 AIRPORT MAP

 RUNWAY INFORMATION
Runway 09 Runway length 10007 ft Runway width 148 ft
Runway elevation 1224 ft Runway displaced threshold 0 ft Runway heading 90
Runway 27 Runway length 10007 ft Runway width 148 ft
Runway elevation 1302 ft Runway displaced threshold 0 ft Runway heading 270

 AIRPORT FREQUENCIES
Type APP Name GRENOBLE A Frequency 119.3 MHZ
Type ATIS Name GRENOBLE A Frequency 125.725 MHZ
Type GND Name GRENOBLE G Frequency 121.925 MHZ
Type TWR Name GRENOBLE T Frequency 119.3 MHZ

 AIRPORT NEAR NAVIGATION AIDS